sensor_id;sensor_type;location;lat;lon;timestamp;P1;durP1;ratioP1;P2;durP2;ratioP2
50301;SDS011;36550;50.472;19.744;2023-05-09T00:02:19;33.20;;;12.20;;
50301;SDS011;36550;50.472;19.744;2023-05-09T00:06:04;37.00;;;11.90;;
50301;SDS011;36550;50.472;19.744;2023-05-09T00:09:49;32.70;;;12.30;;
50301;SDS011;36550;50.472;19.744;2023-05-09T00:13:33;29.20;;;11.60;;
50301;SDS011;36550;50.472;19.744;2023-05-09T00:17:19;25.40;;;11.50;;
50301;SDS011;36550;50.472;19.744;2023-05-09T00:21:03;26.10;;;11.20;;
50301;SDS011;36550;50.472;19.744;2023-05-09T00:24:47;24.40;;;10.00;;
50301;SDS011;36550;50.472;19.744;2023-05-09T00:28:31;27.70;;;12.50;;
50301;SDS011;36550;50.472;19.744;2023-05-09T00:32:16;27.80;;;11.30;;
50301;SDS011;36550;50.472;19.744;2023-05-09T00:36:01;24.00;;;10.90;;
50301;SDS011;36550;50.472;19.744;2023-05-09T00:39:48;23.00;;;11.10;;
50301;SDS011;36550;50.472;19.744;2023-05-09T00:43:33;28.40;;;11.20;;
50301;SDS011;36550;50.472;19.744;2023-05-09T00:47:19;28.60;;;13.80;;
50301;SDS011;36550;50.472;19.744;2023-05-09T00:51:02;30.30;;;13.80;;
50301;SDS011;36550;50.472;19.744;2023-05-09T00:54:50;27.00;;;12.30;;
50301;SDS011;36550;50.472;19.744;2023-05-09T00:58:35;33.80;;;14.00;;
50301;SDS011;36550;50.472;19.744;2023-05-09T01:02:19;35.70;;;14.50;;
50301;SDS011;36550;50.472;19.744;2023-05-09T01:06:12;40.70;;;14.70;;
50301;SDS011;36550;50.472;19.744;2023-05-09T01:14:18;27.70;;;12.10;;
50301;SDS011;36550;50.472;19.744;2023-05-09T01:18:05;30.80;;;11.90;;
50301;SDS011;36550;50.472;19.744;2023-05-09T01:21:47;25.80;;;11.50;;
50301;SDS011;36550;50.472;19.744;2023-05-09T01:25:43;27.20;;;12.20;;
50301;SDS011;36550;50.472;19.744;2023-05-09T01:29:44;28.90;;;12.40;;
50301;SDS011;36550;50.472;19.744;2023-05-09T01:33:28;34.10;;;12.30;;
50301;SDS011;36550;50.472;19.744;2023-05-09T01:37:13;21.80;;;10.20;;
50301;SDS011;36550;50.472;19.744;2023-05-09T01:40:58;25.70;;;10.50;;
50301;SDS011;36550;50.472;19.744;2023-05-09T01:44:42;23.40;;;9.80;;
50301;SDS011;36550;50.472;19.744;2023-05-09T01:48:27;19.00;;;8.90;;
50301;SDS011;36550;50.472;19.744;2023-05-09T01:52:13;20.20;;;8.20;;
50301;SDS011;36550;50.472;19.744;2023-05-09T01:55:56;18.00;;;8.80;;
50301;SDS011;36550;50.472;19.744;2023-05-09T01:59:41;18.30;;;8.90;;
50301;SDS011;36550;50.472;19.744;2023-05-09T02:03:25;22.90;;;8.60;;
50301;SDS011;36550;50.472;19.744;2023-05-09T02:07:10;18.70;;;9.50;;
50301;SDS011;36550;50.472;19.744;2023-05-09T02:10:54;25.80;;;10.30;;
50301;SDS011;36550;50.472;19.744;2023-05-09T02:14:39;18.50;;;9.10;;
50301;SDS011;36550;50.472;19.744;2023-05-09T02:18:24;16.50;;;8.30;;
50301;SDS011;36550;50.472;19.744;2023-05-09T02:22:08;20.00;;;10.00;;
50301;SDS011;36550;50.472;19.744;2023-05-09T02:25:53;20.60;;;9.30;;
50301;SDS011;36550;50.472;19.744;2023-05-09T02:29:45;17.40;;;9.60;;
50301;SDS011;36550;50.472;19.744;2023-05-09T02:33:28;19.40;;;11.50;;
50301;SDS011;36550;50.472;19.744;2023-05-09T02:37:12;19.40;;;10.00;;
50301;SDS011;36550;50.472;19.744;2023-05-09T02:40:57;20.20;;;10.80;;
50301;SDS011;36550;50.472;19.744;2023-05-09T02:44:41;24.10;;;14.80;;
50301;SDS011;36550;50.472;19.744;2023-05-09T02:48:26;23.00;;;12.50;;
50301;SDS011;36550;50.472;19.744;2023-05-09T02:52:11;24.10;;;11.70;;
50301;SDS011;36550;50.472;19.744;2023-05-09T02:55:55;19.40;;;9.50;;
50301;SDS011;36550;50.472;19.744;2023-05-09T02:59:40;18.60;;;10.00;;
50301;SDS011;36550;50.472;19.744;2023-05-09T03:03:24;15.60;;;9.10;;
50301;SDS011;36550;50.472;19.744;2023-05-09T03:07:09;17.60;;;8.80;;
50301;SDS011;36550;50.472;19.744;2023-05-09T03:10:53;16.30;;;8.90;;
50301;SDS011;36550;50.472;19.744;2023-05-09T03:14:37;19.60;;;8.60;;
50301;SDS011;36550;50.472;19.744;2023-05-09T03:18:22;14.70;;;8.10;;
50301;SDS011;36550;50.472;19.744;2023-05-09T03:22:07;17.00;;;9.60;;
50301;SDS011;36550;50.472;19.744;2023-05-09T03:25:51;16.70;;;9.20;;
50301;SDS011;36550;50.472;19.744;2023-05-09T03:29:36;21.30;;;10.80;;
50301;SDS011;36550;50.472;19.744;2023-05-09T03:33:20;20.90;;;10.40;;
50301;SDS011;36550;50.472;19.744;2023-05-09T03:37:05;17.60;;;9.50;;
50301;SDS011;36550;50.472;19.744;2023-05-09T03:40:49;18.00;;;10.10;;
50301;SDS011;36550;50.472;19.744;2023-05-09T03:44:34;16.80;;;8.70;;
50301;SDS011;36550;50.472;19.744;2023-05-09T03:48:19;16.20;;;8.30;;
50301;SDS011;36550;50.472;19.744;2023-05-09T03:52:04;15.10;;;8.60;;
50301;SDS011;36550;50.472;19.744;2023-05-09T03:55:48;17.70;;;8.80;;
50301;SDS011;36550;50.472;19.744;2023-05-09T03:59:32;22.80;;;9.30;;
50301;SDS011;36550;50.472;19.744;2023-05-09T04:03:17;19.20;;;9.70;;
50301;SDS011;36550;50.472;19.744;2023-05-09T04:07:02;18.10;;;9.00;;
50301;SDS011;36550;50.472;19.744;2023-05-09T04:10:48;14.80;;;9.10;;
50301;SDS011;36550;50.472;19.744;2023-05-09T04:14:31;17.90;;;8.50;;
50301;SDS011;36550;50.472;19.744;2023-05-09T04:18:16;20.50;;;7.70;;
50301;SDS011;36550;50.472;19.744;2023-05-09T04:22:01;19.30;;;7.10;;
50301;SDS011;36550;50.472;19.744;2023-05-09T04:25:45;13.70;;;8.10;;
50301;SDS011;36550;50.472;19.744;2023-05-09T04:29:29;13.70;;;8.00;;
50301;SDS011;36550;50.472;19.744;2023-05-09T04:33:14;17.70;;;9.80;;
50301;SDS011;36550;50.472;19.744;2023-05-09T04:36:58;17.80;;;9.70;;
50301;SDS011;36550;50.472;19.744;2023-05-09T04:40:43;21.20;;;10.20;;
50301;SDS011;36550;50.472;19.744;2023-05-09T04:44:28;17.00;;;9.60;;
50301;SDS011;36550;50.472;19.744;2023-05-09T04:48:12;16.00;;;10.00;;
50301;SDS011;36550;50.472;19.744;2023-05-09T04:51:56;19.30;;;10.70;;
50301;SDS011;36550;50.472;19.744;2023-05-09T04:55:40;23.20;;;12.70;;
50301;SDS011;36550;50.472;19.744;2023-05-09T04:59:25;19.60;;;11.80;;
50301;SDS011;36550;50.472;19.744;2023-05-09T05:03:09;21.80;;;10.60;;
50301;SDS011;36550;50.472;19.744;2023-05-09T05:06:54;15.30;;;10.40;;
50301;SDS011;36550;50.472;19.744;2023-05-09T05:10:38;18.10;;;9.50;;
50301;SDS011;36550;50.472;19.744;2023-05-09T05:14:23;13.30;;;8.30;;
50301;SDS011;36550;50.472;19.744;2023-05-09T05:18:08;15.60;;;8.20;;
50301;SDS011;36550;50.472;19.744;2023-05-09T05:21:53;12.40;;;7.90;;
50301;SDS011;36550;50.472;19.744;2023-05-09T05:25:16;14.20;;;8.30;;
50301;SDS011;36550;50.472;19.744;2023-05-09T05:29:01;19.70;;;9.00;;
50301;SDS011;36550;50.472;19.744;2023-05-09T05:32:46;16.40;;;9.00;;
50301;SDS011;36550;50.472;19.744;2023-05-09T05:36:30;17.30;;;8.90;;
50301;SDS011;36550;50.472;19.744;2023-05-09T05:40:15;10.40;;;6.90;;
50301;SDS011;36550;50.472;19.744;2023-05-09T05:43:59;11.30;;;6.40;;
50301;SDS011;36550;50.472;19.744;2023-05-09T05:47:44;11.10;;;6.30;;
50301;SDS011;36550;50.472;19.744;2023-05-09T05:51:28;7.70;;;4.90;;
50301;SDS011;36550;50.472;19.744;2023-05-09T05:55:13;10.80;;;4.90;;
50301;SDS011;36550;50.472;19.744;2023-05-09T05:58:57;5.40;;;4.10;;
50301;SDS011;36550;50.472;19.744;2023-05-09T06:02:41;9.30;;;5.10;;
50301;SDS011;36550;50.472;19.744;2023-05-09T06:06:25;7.40;;;4.50;;
50301;SDS011;36550;50.472;19.744;2023-05-09T06:10:10;10.40;;;3.90;;
50301;SDS011;36550;50.472;19.744;2023-05-09T06:13:54;8.00;;;4.30;;
50301;SDS011;36550;50.472;19.744;2023-05-09T06:17:39;10.50;;;4.50;;
50301;SDS011;36550;50.472;19.744;2023-05-09T06:21:23;5.90;;;4.00;;
50301;SDS011;36550;50.472;19.744;2023-05-09T06:25:08;7.20;;;4.40;;
50301;SDS011;36550;50.472;19.744;2023-05-09T06:28:52;7.50;;;4.10;;
50301;SDS011;36550;50.472;19.744;2023-05-09T06:32:37;9.90;;;4.30;;
50301;SDS011;36550;50.472;19.744;2023-05-09T06:36:21;6.00;;;4.40;;
50301;SDS011;36550;50.472;19.744;2023-05-09T06:40:05;9.40;;;4.60;;
50301;SDS011;36550;50.472;19.744;2023-05-09T06:43:49;6.70;;;3.70;;
50301;SDS011;36550;50.472;19.744;2023-05-09T06:47:33;8.30;;;3.80;;
50301;SDS011;36550;50.472;19.744;2023-05-09T06:51:18;7.00;;;4.30;;
50301;SDS011;36550;50.472;19.744;2023-05-09T06:55:03;5.70;;;3.70;;
50301;SDS011;36550;50.472;19.744;2023-05-09T06:58:47;6.20;;;3.60;;
50301;SDS011;36550;50.472;19.744;2023-05-09T07:02:31;8.50;;;4.10;;
50301;SDS011;36550;50.472;19.744;2023-05-09T07:06:16;7.00;;;3.20;;
50301;SDS011;36550;50.472;19.744;2023-05-09T07:10:01;6.20;;;3.40;;
50301;SDS011;36550;50.472;19.744;2023-05-09T07:13:54;7.20;;;3.50;;
50301;SDS011;36550;50.472;19.744;2023-05-09T07:17:38;9.30;;;3.80;;
50301;SDS011;36550;50.472;19.744;2023-05-09T07:21:22;10.10;;;4.30;;
50301;SDS011;36550;50.472;19.744;2023-05-09T07:25:07;5.90;;;3.70;;
50301;SDS011;36550;50.472;19.744;2023-05-09T07:28:51;11.70;;;3.90;;
50301;SDS011;36550;50.472;19.744;2023-05-09T07:32:35;6.80;;;4.20;;
50301;SDS011;36550;50.472;19.744;2023-05-09T07:36:20;8.50;;;4.70;;
50301;SDS011;36550;50.472;19.744;2023-05-09T07:40:05;12.60;;;5.30;;
50301;SDS011;36550;50.472;19.744;2023-05-09T07:43:49;8.50;;;4.30;;
50301;SDS011;36550;50.472;19.744;2023-05-09T07:47:33;14.60;;;5.60;;
50301;SDS011;36550;50.472;19.744;2023-05-09T07:51:18;14.10;;;5.80;;
50301;SDS011;36550;50.472;19.744;2023-05-09T07:55:03;12.80;;;7.40;;
50301;SDS011;36550;50.472;19.744;2023-05-09T07:58:47;8.30;;;4.40;;
50301;SDS011;36550;50.472;19.744;2023-05-09T08:02:31;10.30;;;4.50;;
50301;SDS011;36550;50.472;19.744;2023-05-09T08:06:16;10.10;;;4.10;;
50301;SDS011;36550;50.472;19.744;2023-05-09T08:10:01;7.40;;;3.50;;
50301;SDS011;36550;50.472;19.744;2023-05-09T08:13:45;7.70;;;3.50;;
50301;SDS011;36550;50.472;19.744;2023-05-09T08:17:30;7.30;;;3.30;;
50301;SDS011;36550;50.472;19.744;2023-05-09T08:21:14;8.40;;;3.30;;
50301;SDS011;36550;50.472;19.744;2023-05-09T08:24:58;6.30;;;3.30;;
50301;SDS011;36550;50.472;19.744;2023-05-09T08:28:42;9.10;;;3.00;;
50301;SDS011;36550;50.472;19.744;2023-05-09T08:32:26;7.70;;;3.20;;
50301;SDS011;36550;50.472;19.744;2023-05-09T08:36:11;6.20;;;3.00;;
50301;SDS011;36550;50.472;19.744;2023-05-09T08:39:56;4.80;;;2.70;;
50301;SDS011;36550;50.472;19.744;2023-05-09T08:43:40;9.00;;;3.50;;
50301;SDS011;36550;50.472;19.744;2023-05-09T08:47:24;6.30;;;3.30;;
50301;SDS011;36550;50.472;19.744;2023-05-09T08:51:08;7.40;;;3.30;;
50301;SDS011;36550;50.472;19.744;2023-05-09T08:54:53;5.90;;;3.50;;
50301;SDS011;36550;50.472;19.744;2023-05-09T08:58:37;7.00;;;3.90;;
50301;SDS011;36550;50.472;19.744;2023-05-09T09:02:21;7.90;;;3.40;;
50301;SDS011;36550;50.472;19.744;2023-05-09T09:06:08;7.70;;;3.50;;
50301;SDS011;36550;50.472;19.744;2023-05-09T09:09:53;8.70;;;4.40;;
50301;SDS011;36550;50.472;19.744;2023-05-09T09:13:39;6.10;;;4.00;;
50301;SDS011;36550;50.472;19.744;2023-05-09T09:17:23;10.40;;;5.50;;
50301;SDS011;36550;50.472;19.744;2023-05-09T09:21:07;8.90;;;4.20;;
50301;SDS011;36550;50.472;19.744;2023-05-09T09:24:50;10.50;;;4.90;;
50301;SDS011;36550;50.472;19.744;2023-05-09T09:28:35;6.50;;;3.30;;
50301;SDS011;36550;50.472;19.744;2023-05-09T09:32:19;6.20;;;3.70;;
50301;SDS011;36550;50.472;19.744;2023-05-09T09:36:04;5.90;;;2.80;;
50301;SDS011;36550;50.472;19.744;2023-05-09T09:39:54;5.00;;;2.50;;
50301;SDS011;36550;50.472;19.744;2023-05-09T09:43:37;6.20;;;2.50;;
50301;SDS011;36550;50.472;19.744;2023-05-09T09:47:29;4.00;;;2.40;;
50301;SDS011;36550;50.472;19.744;2023-05-09T09:51:07;4.20;;;2.30;;
50301;SDS011;36550;50.472;19.744;2023-05-09T09:54:13;3.90;;;2.70;;
50301;SDS011;36550;50.472;19.744;2023-05-09T09:57:57;4.00;;;2.70;;
50301;SDS011;36550;50.472;19.744;2023-05-09T10:01:58;5.20;;;2.70;;
50301;SDS011;36550;50.472;19.744;2023-05-09T10:05:38;4.10;;;2.40;;
50301;SDS011;36550;50.472;19.744;2023-05-09T10:09:23;3.60;;;2.40;;
50301;SDS011;36550;50.472;19.744;2023-05-09T10:13:09;3.40;;;2.30;;
50301;SDS011;36550;50.472;19.744;2023-05-09T10:16:53;8.20;;;2.70;;
50301;SDS011;36550;50.472;19.744;2023-05-09T10:20:36;4.40;;;2.40;;
50301;SDS011;36550;50.472;19.744;2023-05-09T10:24:26;6.00;;;2.70;;
50301;SDS011;36550;50.472;19.744;2023-05-09T10:28:10;5.40;;;2.60;;
50301;SDS011;36550;50.472;19.744;2023-05-09T10:31:53;3.50;;;2.60;;
50301;SDS011;36550;50.472;19.744;2023-05-09T10:35:39;8.00;;;2.80;;
50301;SDS011;36550;50.472;19.744;2023-05-09T10:39:22;4.60;;;2.50;;
50301;SDS011;36550;50.472;19.744;2023-05-09T10:43:07;8.30;;;3.00;;
50301;SDS011;36550;50.472;19.744;2023-05-09T10:46:51;4.70;;;2.40;;
50301;SDS011;36550;50.472;19.744;2023-05-09T10:50:36;7.70;;;2.90;;
50301;SDS011;36550;50.472;19.744;2023-05-09T10:54:27;9.00;;;2.80;;
50301;SDS011;36550;50.472;19.744;2023-05-09T10:58:29;4.70;;;2.60;;
50301;SDS011;36550;50.472;19.744;2023-05-09T11:02:13;4.90;;;3.00;;
50301;SDS011;36550;50.472;19.744;2023-05-09T11:05:57;5.90;;;2.80;;
50301;SDS011;36550;50.472;19.744;2023-05-09T11:09:51;6.80;;;2.30;;
50301;SDS011;36550;50.472;19.744;2023-05-09T11:13:37;5.60;;;2.30;;
50301;SDS011;36550;50.472;19.744;2023-05-09T11:21:07;6.70;;;3.20;;
50301;SDS011;36550;50.472;19.744;2023-05-09T11:24:51;8.80;;;4.70;;
50301;SDS011;36550;50.472;19.744;2023-05-09T11:28:36;6.40;;;3.60;;
50301;SDS011;36550;50.472;19.744;2023-05-09T11:32:20;5.60;;;2.80;;
50301;SDS011;36550;50.472;19.744;2023-05-09T11:36:17;13.60;;;9.30;;
50301;SDS011;36550;50.472;19.744;2023-05-09T11:40:01;6.00;;;3.30;;
50301;SDS011;36550;50.472;19.744;2023-05-09T11:43:45;5.60;;;3.90;;
50301;SDS011;36550;50.472;19.744;2023-05-09T11:47:29;7.60;;;5.80;;
50301;SDS011;36550;50.472;19.744;2023-05-09T11:51:15;6.70;;;4.20;;
50301;SDS011;36550;50.472;19.744;2023-05-09T11:55:01;10.30;;;4.80;;
50301;SDS011;36550;50.472;19.744;2023-05-09T11:58:48;7.80;;;5.40;;
50301;SDS011;36550;50.472;19.744;2023-05-09T12:02:30;11.80;;;6.60;;
50301;SDS011;36550;50.472;19.744;2023-05-09T12:06:18;5.10;;;4.30;;
50301;SDS011;36550;50.472;19.744;2023-05-09T12:10:09;4.90;;;2.90;;
50301;SDS011;36550;50.472;19.744;2023-05-09T12:13:50;4.00;;;2.20;;
50301;SDS011;36550;50.472;19.744;2023-05-09T12:17:34;5.00;;;2.40;;
50301;SDS011;36550;50.472;19.744;2023-05-09T12:21:27;3.80;;;2.00;;
50301;SDS011;36550;50.472;19.744;2023-05-09T12:25:11;5.60;;;2.50;;
50301;SDS011;36550;50.472;19.744;2023-05-09T12:28:56;6.90;;;2.20;;
50301;SDS011;36550;50.472;19.744;2023-05-09T12:32:41;7.60;;;5.50;;
50301;SDS011;36550;50.472;19.744;2023-05-09T12:36:26;9.70;;;3.70;;
50301;SDS011;36550;50.472;19.744;2023-05-09T12:40:13;5.70;;;3.60;;
50301;SDS011;36550;50.472;19.744;2023-05-09T12:43:57;7.60;;;2.60;;
50301;SDS011;36550;50.472;19.744;2023-05-09T12:47:42;5.30;;;3.00;;
50301;SDS011;36550;50.472;19.744;2023-05-09T12:51:26;10.90;;;6.00;;
50301;SDS011;36550;50.472;19.744;2023-05-09T12:55:14;10.10;;;5.90;;
50301;SDS011;36550;50.472;19.744;2023-05-09T12:59:01;10.10;;;3.10;;
50301;SDS011;36550;50.472;19.744;2023-05-09T13:02:47;10.40;;;2.60;;
50301;SDS011;36550;50.472;19.744;2023-05-09T13:06:30;4.60;;;1.80;;
50301;SDS011;36550;50.472;19.744;2023-05-09T13:10:19;5.50;;;2.60;;
50301;SDS011;36550;50.472;19.744;2023-05-09T13:14:02;8.10;;;4.30;;
50301;SDS011;36550;50.472;19.744;2023-05-09T13:17:50;5.40;;;3.80;;
50301;SDS011;36550;50.472;19.744;2023-05-09T13:21:34;11.20;;;5.00;;
50301;SDS011;36550;50.472;19.744;2023-05-09T13:25:18;11.30;;;7.20;;
50301;SDS011;36550;50.472;19.744;2023-05-09T13:28:47;17.40;;;9.80;;
50301;SDS011;36550;50.472;19.744;2023-05-09T13:32:31;15.60;;;9.00;;
50301;SDS011;36550;50.472;19.744;2023-05-09T13:36:15;5.40;;;3.40;;
50301;SDS011;36550;50.472;19.744;2023-05-09T13:39:59;11.60;;;4.60;;
50301;SDS011;36550;50.472;19.744;2023-05-09T13:43:44;4.10;;;2.20;;
50301;SDS011;36550;50.472;19.744;2023-05-09T13:47:28;7.40;;;3.00;;
50301;SDS011;36550;50.472;19.744;2023-05-09T13:51:13;4.20;;;2.20;;
50301;SDS011;36550;50.472;19.744;2023-05-09T13:54:57;5.00;;;2.30;;
50301;SDS011;36550;50.472;19.744;2023-05-09T13:58:42;8.80;;;2.30;;
50301;SDS011;36550;50.472;19.744;2023-05-09T14:02:27;6.20;;;2.20;;
50301;SDS011;36550;50.472;19.744;2023-05-09T14:06:12;4.80;;;2.30;;
50301;SDS011;36550;50.472;19.744;2023-05-09T14:09:56;4.90;;;2.50;;
50301;SDS011;36550;50.472;19.744;2023-05-09T14:13:41;3.50;;;2.40;;
50301;SDS011;36550;50.472;19.744;2023-05-09T14:17:25;4.50;;;2.40;;
50301;SDS011;36550;50.472;19.744;2023-05-09T14:21:09;4.70;;;2.10;;
50301;SDS011;36550;50.472;19.744;2023-05-09T14:24:53;8.80;;;2.80;;
50301;SDS011;36550;50.472;19.744;2023-05-09T14:28:38;4.70;;;2.30;;
50301;SDS011;36550;50.472;19.744;2023-05-09T14:32:02;8.00;;;2.90;;
50301;SDS011;36550;50.472;19.744;2023-05-09T14:34:49;11.50;;;4.10;;
50301;SDS011;36550;50.472;19.744;2023-05-09T14:37:53;9.40;;;4.70;;
50301;SDS011;36550;50.472;19.744;2023-05-09T14:40:38;6.00;;;2.80;;
50301;SDS011;36550;50.472;19.744;2023-05-09T14:44:04;5.60;;;3.30;;
50301;SDS011;36550;50.472;19.744;2023-05-09T14:47:33;12.00;;;2.90;;
50301;SDS011;36550;50.472;19.744;2023-05-09T14:50:17;6.30;;;4.10;;
50301;SDS011;36550;50.472;19.744;2023-05-09T14:53:07;27.40;;;20.30;;
50301;SDS011;36550;50.472;19.744;2023-05-09T14:55:54;10.10;;;3.80;;
50301;SDS011;36550;50.472;19.744;2023-05-09T14:58:44;3.50;;;2.80;;
50301;SDS011;36550;50.472;19.744;2023-05-09T15:01:29;6.00;;;2.70;;
50301;SDS011;36550;50.472;19.744;2023-05-09T15:04:20;8.20;;;6.00;;
50301;SDS011;36550;50.472;19.744;2023-05-09T15:07:41;12.10;;;6.20;;
50301;SDS011;36550;50.472;19.744;2023-05-09T15:10:26;7.80;;;2.10;;
50301;SDS011;36550;50.472;19.744;2023-05-09T15:13:24;8.00;;;2.00;;
50301;SDS011;36550;50.472;19.744;2023-05-09T15:16:23;3.20;;;2.00;;
50301;SDS011;36550;50.472;19.744;2023-05-09T15:19:09;5.30;;;2.70;;
50301;SDS011;36550;50.472;19.744;2023-05-09T15:21:53;4.50;;;2.50;;
50301;SDS011;36550;50.472;19.744;2023-05-09T15:24:37;5.30;;;2.20;;
50301;SDS011;36550;50.472;19.744;2023-05-09T15:27:25;12.30;;;2.50;;
50301;SDS011;36550;50.472;19.744;2023-05-09T15:30:09;12.90;;;8.40;;
50301;SDS011;36550;50.472;19.744;2023-05-09T15:33:07;14.80;;;9.50;;
50301;SDS011;36550;50.472;19.744;2023-05-09T15:36:09;20.10;;;14.20;;
50301;SDS011;36550;50.472;19.744;2023-05-09T15:38:53;18.00;;;10.60;;
50301;SDS011;36550;50.472;19.744;2023-05-09T15:41:38;15.00;;;9.80;;
50301;SDS011;36550;50.472;19.744;2023-05-09T15:44:43;13.20;;;8.60;;
50301;SDS011;36550;50.472;19.744;2023-05-09T15:47:30;4.80;;;3.70;;
50301;SDS011;36550;50.472;19.744;2023-05-09T15:50:13;3.40;;;2.40;;
50301;SDS011;36550;50.472;19.744;2023-05-09T15:52:59;6.50;;;2.60;;
50301;SDS011;36550;50.472;19.744;2023-05-09T15:55:51;6.00;;;2.40;;
50301;SDS011;36550;50.472;19.744;2023-05-09T15:58:57;3.60;;;1.90;;
50301;SDS011;36550;50.472;19.744;2023-05-09T16:02:03;6.10;;;2.60;;
50301;SDS011;36550;50.472;19.744;2023-05-09T16:04:49;9.40;;;2.00;;
50301;SDS011;36550;50.472;19.744;2023-05-09T16:07:33;6.20;;;2.20;;
50301;SDS011;36550;50.472;19.744;2023-05-09T16:10:21;3.80;;;2.40;;
50301;SDS011;36550;50.472;19.744;2023-05-09T16:13:05;6.40;;;2.70;;
50301;SDS011;36550;50.472;19.744;2023-05-09T16:15:50;6.90;;;3.80;;
50301;SDS011;36550;50.472;19.744;2023-05-09T16:18:36;9.10;;;4.20;;
50301;SDS011;36550;50.472;19.744;2023-05-09T16:21:54;4.70;;;2.80;;
50301;SDS011;36550;50.472;19.744;2023-05-09T16:25:16;20.40;;;11.40;;
50301;SDS011;36550;50.472;19.744;2023-05-09T16:28:21;7.70;;;3.20;;
50301;SDS011;36550;50.472;19.744;2023-05-09T16:31:06;3.60;;;2.10;;
50301;SDS011;36550;50.472;19.744;2023-05-09T16:33:54;6.50;;;3.30;;
50301;SDS011;36550;50.472;19.744;2023-05-09T16:37:09;4.50;;;2.20;;
50301;SDS011;36550;50.472;19.744;2023-05-09T16:40:27;8.20;;;2.40;;
50301;SDS011;36550;50.472;19.744;2023-05-09T16:43:34;6.10;;;4.40;;
50301;SDS011;36550;50.472;19.744;2023-05-09T16:46:52;9.10;;;4.10;;
50301;SDS011;36550;50.472;19.744;2023-05-09T16:49:57;6.40;;;3.00;;
50301;SDS011;36550;50.472;19.744;2023-05-09T16:53:02;14.10;;;6.70;;
50301;SDS011;36550;50.472;19.744;2023-05-09T16:56:07;12.20;;;5.90;;
50301;SDS011;36550;50.472;19.744;2023-05-09T16:59:08;6.70;;;4.20;;
50301;SDS011;36550;50.472;19.744;2023-05-09T17:01:56;7.50;;;4.40;;
50301;SDS011;36550;50.472;19.744;2023-05-09T17:05:17;12.00;;;3.90;;
50301;SDS011;36550;50.472;19.744;2023-05-09T17:08:21;20.30;;;9.10;;
50301;SDS011;36550;50.472;19.744;2023-05-09T17:11:07;18.20;;;7.60;;
50301;SDS011;36550;50.472;19.744;2023-05-09T17:14:15;20.10;;;10.80;;
50301;SDS011;36550;50.472;19.744;2023-05-09T17:17:00;20.20;;;8.80;;
50301;SDS011;36550;50.472;19.744;2023-05-09T17:19:44;13.30;;;7.40;;
50301;SDS011;36550;50.472;19.744;2023-05-09T17:22:28;16.40;;;7.10;;
50301;SDS011;36550;50.472;19.744;2023-05-09T17:25:28;9.00;;;3.90;;
50301;SDS011;36550;50.472;19.744;2023-05-09T17:28:13;13.60;;;6.20;;
50301;SDS011;36550;50.472;19.744;2023-05-09T17:31:37;33.30;;;21.90;;
50301;SDS011;36550;50.472;19.744;2023-05-09T17:34:23;15.50;;;8.80;;
50301;SDS011;36550;50.472;19.744;2023-05-09T17:37:07;18.70;;;12.90;;
50301;SDS011;36550;50.472;19.744;2023-05-09T17:40:12;40.20;;;6.50;;
50301;SDS011;36550;50.472;19.744;2023-05-09T17:43:00;58.20;;;6.70;;
50301;SDS011;36550;50.472;19.744;2023-05-09T17:45:53;13.20;;;5.10;;
50301;SDS011;36550;50.472;19.744;2023-05-09T17:48:57;9.90;;;5.00;;
50301;SDS011;36550;50.472;19.744;2023-05-09T17:52:04;14.30;;;8.60;;
50301;SDS011;36550;50.472;19.744;2023-05-09T17:54:49;13.90;;;10.00;;
50301;SDS011;36550;50.472;19.744;2023-05-09T17:57:34;16.20;;;10.40;;
50301;SDS011;36550;50.472;19.744;2023-05-09T18:00:25;45.70;;;29.70;;
50301;SDS011;36550;50.472;19.744;2023-05-09T18:03:49;21.60;;;10.90;;
50301;SDS011;36550;50.472;19.744;2023-05-09T18:06:59;19.00;;;13.90;;
50301;SDS011;36550;50.472;19.744;2023-05-09T18:09:45;14.60;;;8.40;;
50301;SDS011;36550;50.472;19.744;2023-05-09T18:12:53;12.10;;;6.80;;
50301;SDS011;36550;50.472;19.744;2023-05-09T18:15:45;10.70;;;6.70;;
50301;SDS011;36550;50.472;19.744;2023-05-09T18:18:45;13.60;;;8.30;;
50301;SDS011;36550;50.472;19.744;2023-05-09T18:21:31;12.00;;;5.40;;
50301;SDS011;36550;50.472;19.744;2023-05-09T18:24:22;13.80;;;7.40;;
50301;SDS011;36550;50.472;19.744;2023-05-09T18:27:27;15.00;;;7.30;;
50301;SDS011;36550;50.472;19.744;2023-05-09T18:30:31;12.70;;;6.90;;
50301;SDS011;36550;50.472;19.744;2023-05-09T18:33:55;11.60;;;6.40;;
50301;SDS011;36550;50.472;19.744;2023-05-09T18:37:04;13.50;;;7.90;;
50301;SDS011;36550;50.472;19.744;2023-05-09T18:40:22;17.70;;;7.80;;
50301;SDS011;36550;50.472;19.744;2023-05-09T18:43:46;15.20;;;7.80;;
50301;SDS011;36550;50.472;19.744;2023-05-09T18:47:10;10.00;;;5.70;;
50301;SDS011;36550;50.472;19.744;2023-05-09T18:50:08;11.80;;;6.20;;
50301;SDS011;36550;50.472;19.744;2023-05-09T18:53:30;17.90;;;8.20;;
50301;SDS011;36550;50.472;19.744;2023-05-09T18:56:17;18.90;;;10.50;;
50301;SDS011;36550;50.472;19.744;2023-05-09T18:59:04;33.80;;;15.10;;
50301;SDS011;36550;50.472;19.744;2023-05-09T19:02:48;25.30;;;11.30;;
50301;SDS011;36550;50.472;19.744;2023-05-09T19:06:15;10.70;;;6.40;;
50301;SDS011;36550;50.472;19.744;2023-05-09T19:09:59;17.40;;;11.50;;
50301;SDS011;36550;50.472;19.744;2023-05-09T19:13:43;13.10;;;10.20;;
50301;SDS011;36550;50.472;19.744;2023-05-09T19:16:48;12.60;;;8.70;;
50301;SDS011;36550;50.472;19.744;2023-05-09T19:22:37;11.10;;;7.90;;
50301;SDS011;36550;50.472;19.744;2023-05-09T19:26:05;15.40;;;8.40;;
50301;SDS011;36550;50.472;19.744;2023-05-09T19:29:31;16.20;;;9.30;;
50301;SDS011;36550;50.472;19.744;2023-05-09T19:32:15;19.40;;;8.70;;
50301;SDS011;36550;50.472;19.744;2023-05-09T19:35:34;14.50;;;7.80;;
50301;SDS011;36550;50.472;19.744;2023-05-09T19:38:38;15.70;;;8.00;;
50301;SDS011;36550;50.472;19.744;2023-05-09T19:41:54;13.70;;;6.80;;
50301;SDS011;36550;50.472;19.744;2023-05-09T19:45:18;14.50;;;7.40;;
50301;SDS011;36550;50.472;19.744;2023-05-09T19:48:27;12.90;;;7.00;;
50301;SDS011;36550;50.472;19.744;2023-05-09T19:51:17;13.70;;;6.80;;
50301;SDS011;36550;50.472;19.744;2023-05-09T19:55:01;9.00;;;5.80;;
50301;SDS011;36550;50.472;19.744;2023-05-09T20:01:13;12.70;;;5.10;;
50301;SDS011;36550;50.472;19.744;2023-05-09T20:04:37;9.30;;;4.80;;
50301;SDS011;36550;50.472;19.744;2023-05-09T20:07:42;13.00;;;4.70;;
50301;SDS011;36550;50.472;19.744;2023-05-09T20:10:47;12.20;;;4.90;;
50301;SDS011;36550;50.472;19.744;2023-05-09T20:13:52;12.30;;;5.30;;
50301;SDS011;36550;50.472;19.744;2023-05-09T20:16:57;13.40;;;5.80;;
50301;SDS011;36550;50.472;19.744;2023-05-09T20:20:10;14.30;;;5.50;;
50301;SDS011;36550;50.472;19.744;2023-05-09T20:23:01;11.60;;;6.20;;
50301;SDS011;36550;50.472;19.744;2023-05-09T20:26:46;11.10;;;4.90;;
50301;SDS011;36550;50.472;19.744;2023-05-09T20:30:30;8.00;;;4.50;;
50301;SDS011;36550;50.472;19.744;2023-05-09T20:34:15;8.90;;;4.10;;
50301;SDS011;36550;50.472;19.744;2023-05-09T20:37:59;12.00;;;5.30;;
50301;SDS011;36550;50.472;19.744;2023-05-09T20:41:44;8.60;;;5.00;;
50301;SDS011;36550;50.472;19.744;2023-05-09T20:45:27;10.40;;;4.70;;
50301;SDS011;36550;50.472;19.744;2023-05-09T20:49:11;14.00;;;5.00;;
50301;SDS011;36550;50.472;19.744;2023-05-09T20:52:56;11.60;;;5.90;;